Klaipeda, Lithuania
Current Conditions -  °F | °C
As of 9:20 PM on Monday 20 Oct 2014 (Local Time) from EYPA Reporting Station
Broken Clouds Broken Clouds  
Wind Chill: 55°   Ceiling: 1500
Heat Index: 55°   Visibility: 6mi
Dew Point: 52°   Wind: 14mph
Humidity: 88%   Direction: 290°WNW
Pressure: 29.53"   Gusts: 30mph
Location:  55.71°N, 21.13°E
Report Text: EYPA 201820Z 29012G26KT 240V340 9999 BKN015 13/11 Q1000
Loading
Personal Weather Stations






























Interactive Weather Map
Tropical Storm Tracking
New forecast layout! Learn more

10-Day Weather Forecast

Advertisements
Track Severe Weather on mobile